Time;durP1;ratioP1;P1;durP2;ratioP2;P2;SDS_P1;SDS_P2;PMS_P1;PMS_P2;Temp;Humidity;BMP_temperature;BMP_pressure;BME280_temperature;BME280_humidity;BME280_pressure;Samples;Min_cycle;Max_cycle;Signal;HPM_P1;HPM_P2
2022/09/12 00:01:56;;;;;;;5.68;2.00;;;17.00;99.90;;;;;;4975356;28;20027;-89
2022/09/12 00:04:23;;;;;;;4.88;1.75;;;17.00;99.90;;;;;;4976559;28;20054;-89
2022/09/12 00:06:49;;;;;;;5.45;1.60;;;17.00;99.90;;;;;;4975738;28;20039;-89
2022/09/12 00:09:15;;;;;;;5.72;2.30;;;17.00;99.90;;;;;;4975547;28;20051;-90
2022/09/12 00:11:43;;;;;;;8.68;2.20;;;17.00;99.90;;;;;;4976171;28;20063;-89
2022/09/12 00:14:12;;;;;;;4.45;1.98;;;17.00;99.90;;;;;;4976652;28;20106;-89
2022/09/12 00:16:38;;;;;;;4.22;2.08;;;17.00;99.90;;;;;;4985582;28;20102;-91
2022/09/12 00:19:05;;;;;;;9.65;2.50;;;16.90;99.90;;;;;;4973929;28;20057;-91
2022/09/12 00:21:35;;;;;;;8.07;2.72;;;16.90;99.90;;;;;;4979320;28;20057;-92
2022/09/12 00:24:01;;;;;;;3.80;2.40;;;17.00;99.90;;;;;;4975888;28;20039;-91
2022/09/12 00:26:27;;;;;;;5.22;2.65;;;16.90;99.90;;;;;;4975431;28;20119;-90
2022/09/12 00:28:54;;;;;;;4.00;2.17;;;16.90;99.90;;;;;;4974786;28;20118;-90
2022/09/12 00:31:25;;;;;;;7.63;2.13;;;16.80;99.90;;;;;;4974868;28;20121;-90
2022/09/12 00:33:52;;;;;;;9.25;2.80;;;16.80;99.90;;;;;;4974807;28;20026;-90
2022/09/12 00:36:22;;;;;;;5.82;3.00;;;16.80;99.90;;;;;;4974900;28;20027;-89
2022/09/12 00:38:49;;;;;;;6.60;2.47;;;16.70;99.90;;;;;;4974396;28;20042;-89
2022/09/12 00:41:42;;;;;;;4.65;2.92;;;16.70;99.90;;;;;;4974700;28;20370;-90
2022/09/12 00:44:23;;;;;;;5.25;2.90;;;16.70;99.90;;;;;;4973557;28;20046;-90
2022/09/12 00:47:02;;;;;;;6.10;3.30;;;16.60;99.90;;;;;;4976457;28;20047;-90
2022/09/12 00:49:30;;;;;;;3.95;3.00;;;16.60;99.90;;;;;;4994277;28;20090;-90
2022/09/12 00:52:04;;;;;;;5.18;3.03;;;16.50;99.90;;;;;;4997570;28;20015;-91
2022/09/12 00:54:42;;;;;;;7.40;3.50;;;16.50;99.90;;;;;;4976774;28;20027;-91
2022/09/12 00:57:10;;;;;;;7.82;2.97;;;16.50;99.90;;;;;;4973520;28;20034;-90
2022/09/12 01:00:13;;;;;;;4.43;2.65;;;16.40;99.90;;;;;;4973828;28;20122;-90
2022/09/12 01:02:40;;;;;;;7.85;2.92;;;16.40;99.90;;;;;;4958159;28;20093;-91
2022/09/12 01:05:07;;;;;;;4.30;3.33;;;16.40;99.90;;;;;;4974054;28;20027;-90
2022/09/12 01:07:38;;;;;;;7.70;3.58;;;16.40;99.90;;;;;;4974144;28;20030;-91
2022/09/12 01:10:06;;;;;;;6.78;3.55;;;16.30;99.90;;;;;;4974292;28;20046;-91
2022/09/12 01:12:33;;;;;;;9.95;3.60;;;16.30;99.90;;;;;;4974326;28;20022;-91
2022/09/12 01:14:59;;;;;;;5.75;3.53;;;16.30;99.90;;;;;;4974252;28;20121;-90
2022/09/12 01:17:41;;;;;;;6.00;4.22;;;16.30;99.90;;;;;;4973703;28;20054;-89
2022/09/12 01:20:38;;;;;;;6.10;3.83;;;16.20;99.90;;;;;;4973363;28;20552;-88
2022/09/12 01:23:04;;;;;;;5.70;2.90;;;16.20;99.90;;;;;;4973747;28;20022;-90
2022/09/12 01:25:56;;;;;;;7.18;4.00;;;16.20;99.90;;;;;;4974122;28;20039;-89
2022/09/12 01:28:47;;;;;;;6.95;3.85;;;16.10;99.90;;;;;;4935187;28;20043;-88
2022/09/12 01:31:22;;;;;;;;;;;16.10;99.90;;;;;;4981871;28;20053;-90
2022/09/12 01:34:14;;;;;;;5.32;3.38;;;16.10;99.90;;;;;;4981350;28;19960;-89
2022/09/12 01:37:05;;;;;;;7.28;4.25;;;16.10;99.90;;;;;;4950526;28;20070;-90
2022/09/12 01:39:46;;;;;;;7.90;4.90;;;16.10;99.90;;;;;;4980245;28;20035;-90
2022/09/12 01:42:39;;;;;;;;;;;16.10;99.90;;;;;;4978452;28;20026;-90
2022/09/12 01:45:20;;;;;;;6.13;4.38;;;16.10;99.90;;;;;;4974261;28;19914;-90
2022/09/12 01:47:52;;;;;;;7.15;4.13;;;16.10;99.90;;;;;;4975023;28;20042;-91
2022/09/12 01:50:26;;;;;;;6.85;4.85;;;16.10;99.90;;;;;;4973704;28;20035;-90
2022/09/12 01:53:07;;;;;;;8.82;4.65;;;16.10;99.90;;;;;;4973430;28;20037;-90
2022/09/12 01:55:51;;;;;;;5.18;3.05;;;16.10;99.90;;;;;;4973151;28;20050;-89
2022/09/12 01:58:28;;;;;;;11.73;5.13;;;16.10;99.90;;;;;;4972958;28;20022;-88
2022/09/12 02:01:03;;;;;;;9.82;4.78;;;16.10;99.90;;;;;;4972684;28;20027;-90
2022/09/12 02:03:33;;;;;;;12.27;5.65;;;16.10;99.90;;;;;;4972346;28;20071;-89
2022/09/12 02:06:19;;;;;;;;;;;16.10;99.90;;;;;;4972826;28;20058;-90
2022/09/12 02:09:01;;;;;;;8.10;4.18;;;16.10;99.90;;;;;;4972295;28;20378;-90
2022/09/12 02:11:30;;;;;;;9.25;5.25;;;16.10;99.90;;;;;;4972702;28;20156;-90
2022/09/12 02:14:08;;;;;;;6.57;4.95;;;16.00;99.90;;;;;;4972984;28;20030;-90
2022/09/12 02:16:39;;;;;;;5.97;4.03;;;16.10;99.90;;;;;;4975576;28;20081;-89
2022/09/12 02:19:15;;;;;;;8.95;4.80;;;16.00;99.90;;;;;;4975422;28;20031;-92
2022/09/12 02:22:04;;;;;;;5.03;3.70;;;16.00;99.90;;;;;;4972352;28;20038;-91
2022/09/12 02:24:38;;;;;;;12.07;5.10;;;16.10;99.90;;;;;;4971699;28;20045;-91
2022/09/12 02:27:15;;;;;;;8.20;5.53;;;16.10;99.90;;;;;;4972654;28;20034;-91
2022/09/12 02:29:43;;;;;;;7.28;4.68;;;16.00;99.90;;;;;;4973997;28;20027;-91
2022/09/12 02:32:37;;;;;;;11.07;5.63;;;16.00;99.90;;;;;;4974160;28;20050;-92
2022/09/12 02:35:27;;;;;;;8.52;5.20;;;16.00;99.90;;;;;;4987394;28;20540;-90
2022/09/12 02:38:06;;;;;;;11.18;4.75;;;16.00;99.90;;;;;;4996141;28;20026;-93
2022/09/12 02:40:33;;;;;;;8.68;4.72;;;16.00;99.90;;;;;;4973751;28;20041;-90
2022/09/12 02:43:01;;;;;;;8.00;5.30;;;16.00;99.90;;;;;;4974366;28;20027;-91
2022/09/12 02:45:28;;;;;;;9.15;4.47;;;16.00;99.90;;;;;;4966155;28;20046;-91
2022/09/12 02:48:11;;;;;;;9.65;4.10;;;16.00;99.90;;;;;;4960446;28;20055;-91
2022/09/12 02:50:37;;;;;;;6.95;4.80;;;16.00;99.90;;;;;;4961962;28;20024;-91
2022/09/12 02:53:04;;;;;;;8.52;4.65;;;16.00;99.90;;;;;;4956327;28;20046;-91
2022/09/12 02:55:32;;;;;;;5.05;4.07;;;16.00;99.90;;;;;;4963725;28;20078;-92
2022/09/12 02:58:04;;;;;;;5.45;3.80;;;16.00;99.90;;;;;;4964290;28;20023;-91
2022/09/12 03:00:50;;;;;;;6.10;3.50;;;16.00;99.90;;;;;;4960303;28;20034;-91
2022/09/12 03:03:39;;;;;;;9.38;5.40;;;16.00;99.90;;;;;;4960011;28;20110;-91
2022/09/12 03:06:31;;;;;;;7.68;5.45;;;16.00;99.90;;;;;;4955878;28;20050;-92
2022/09/12 03:19:52;;;;;;;8.18;4.43;;;16.00;99.90;;;;;;4984517;23;20655;-90
2022/09/12 03:22:45;;;;;;;8.20;5.13;;;16.00;99.90;;;;;;4974425;28;20039;-90
2022/09/12 03:25:22;;;;;;;6.00;4.20;;;16.00;99.90;;;;;;4957310;28;20034;-89
2022/09/12 03:28:15;;;;;;;8.02;4.18;;;16.00;99.90;;;;;;4959319;28;20034;-89
2022/09/12 03:30:55;;;;;;;4.93;3.83;;;16.00;99.90;;;;;;4947534;28;20119;-89
2022/09/12 03:33:24;;;;;;;10.18;5.18;;;16.00;99.90;;;;;;4945026;28;20126;-89
2022/09/12 03:36:10;;;;;;;12.07;5.88;;;16.00;99.90;;;;;;4959541;28;20030;-90
2022/09/12 03:38:36;;;;;;;8.00;4.63;;;16.00;99.90;;;;;;4972879;28;20050;-90
2022/09/12 03:41:01;;;;;;;10.13;4.53;;;16.00;99.90;;;;;;4958362;28;20059;-89
2022/09/12 03:43:27;;;;;;;8.85;5.25;;;16.00;99.90;;;;;;4958201;28;20428;-90
2022/09/12 03:45:52;;;;;;;8.60;5.82;;;16.00;99.90;;;;;;4958097;28;20073;-89
2022/09/12 03:48:18;;;;;;;10.45;6.82;;;16.00;99.90;;;;;;4958359;28;20026;-89
2022/09/12 03:50:44;;;;;;;6.80;4.57;;;16.00;99.90;;;;;;4958691;28;20023;-89
2022/09/12 03:53:09;;;;;;;10.07;5.72;;;16.00;99.90;;;;;;4959050;28;20089;-89
2022/09/12 03:55:37;;;;;;;10.63;5.90;;;16.00;99.90;;;;;;4958872;28;20023;-89
2022/09/12 03:58:03;;;;;;;7.82;5.38;;;16.00;99.90;;;;;;4958442;28;20030;-91
2022/09/12 04:00:29;;;;;;;11.80;6.13;;;16.00;99.90;;;;;;4958388;28;20019;-89
2022/09/12 04:02:56;;;;;;;7.72;5.07;;;16.00;99.90;;;;;;4958821;28;20026;-90
2022/09/12 04:05:22;;;;;;;12.02;7.53;;;16.00;99.90;;;;;;4958501;28;20027;-89
2022/09/12 04:07:48;;;;;;;6.15;4.22;;;16.00;99.90;;;;;;4958075;28;20050;-90
2022/09/12 04:10:14;;;;;;;11.30;6.40;;;16.00;99.90;;;;;;4958887;28;20026;-90
2022/09/12 04:12:40;;;;;;;11.18;6.60;;;16.10;99.90;;;;;;4958829;28;20392;-92
2022/09/12 04:15:06;;;;;;;11.05;6.72;;;16.10;99.90;;;;;;4960035;28;20026;-92
2022/09/12 04:17:33;;;;;;;8.88;6.05;;;16.00;99.90;;;;;;4976103;28;20061;-91
2022/09/12 04:19:59;;;;;;;11.48;7.65;;;16.10;99.90;;;;;;4976113;28;20046;-89
2022/09/12 04:22:25;;;;;;;15.07;6.88;;;16.00;99.90;;;;;;4980636;28;20026;-90
2022/09/12 04:24:51;;;;;;;12.23;6.95;;;16.00;99.90;;;;;;4980277;28;20057;-89
2022/09/12 04:27:17;;;;;;;11.80;6.88;;;16.10;99.90;;;;;;4965777;28;20031;-89
2022/09/12 04:29:43;;;;;;;17.10;9.18;;;16.10;99.90;;;;;;4962756;28;20023;-90
2022/09/12 04:32:08;;;;;;;14.45;7.57;;;16.10;99.90;;;;;;4960860;28;20023;-90
2022/09/12 04:34:34;;;;;;;9.10;6.10;;;16.10;99.90;;;;;;4959093;28;20033;-91
2022/09/12 04:37:00;;;;;;;12.60;7.65;;;16.10;99.90;;;;;;4959096;28;20492;-93
2022/09/12 04:39:26;;;;;;;12.80;7.55;;;16.10;99.90;;;;;;4958880;28;20035;-91
2022/09/12 04:41:53;;;;;;;10.10;7.20;;;16.10;99.90;;;;;;4959262;28;20034;-89
2022/09/12 04:44:18;;;;;;;13.38;7.70;;;16.10;99.90;;;;;;4958775;28;20029;-90
2022/09/12 04:46:46;;;;;;;12.02;7.35;;;16.10;99.90;;;;;;4958821;28;20424;-90
2022/09/12 04:49:13;;;;;;;13.77;8.77;;;16.10;99.90;;;;;;4958796;28;20031;-90
2022/09/12 04:51:40;;;;;;;10.02;5.40;;;16.10;99.90;;;;;;4958875;28;20472;-89
2022/09/12 04:54:18;;;;;;;15.43;6.85;;;16.10;99.90;;;;;;4959152;28;20121;-91
2022/09/12 04:56:47;;;;;;;11.98;6.43;;;16.10;99.90;;;;;;4958919;28;20027;-90
2022/09/12 04:59:15;;;;;;;10.55;7.32;;;16.10;99.90;;;;;;4956504;28;20495;-90
2022/09/12 05:01:42;;;;;;;11.05;5.97;;;16.20;99.90;;;;;;4958274;28;20019;-90
2022/09/12 05:04:09;;;;;;;12.88;7.65;;;16.20;99.90;;;;;;4958206;28;20074;-91
2022/09/12 05:06:39;;;;;;;9.05;6.70;;;16.30;99.90;;;;;;4958245;28;20038;-90
2022/09/12 05:09:07;;;;;;;9.52;6.13;;;16.30;99.90;;;;;;4958026;28;20461;-91
2022/09/12 05:11:37;;;;;;;8.45;5.70;;;16.30;99.90;;;;;;4958068;28;20063;-89
2022/09/12 05:14:04;;;;;;;9.75;6.60;;;16.30;99.90;;;;;;4958283;28;20086;-90
2022/09/12 05:16:34;;;;;;;9.77;5.68;;;16.30;99.90;;;;;;4957967;28;20026;-90
2022/09/12 05:18:59;;;;;;;4.70;3.43;;;16.30;99.90;;;;;;4942327;28;20068;-90
2022/09/12 05:21:26;;;;;;;11.25;6.78;;;16.30;99.90;;;;;;4957599;28;20270;-90
2022/09/12 05:24:01;;;;;;;11.43;6.93;;;16.30;99.90;;;;;;4958813;28;20396;-90
2022/09/12 05:26:26;;;;;;;13.13;7.55;;;16.30;99.90;;;;;;4942499;28;20097;-90
2022/09/12 05:28:55;;;;;;;9.27;5.55;;;16.30;99.90;;;;;;4954986;28;20423;-91
2022/09/12 05:31:28;;;;;;;9.75;7.15;;;16.30;99.90;;;;;;4957937;28;20034;-90
2022/09/12 05:33:57;;;;;;;8.80;5.40;;;16.30;99.90;;;;;;4952641;28;20031;-90
2022/09/12 05:36:25;;;;;;;10.45;5.75;;;16.30;99.90;;;;;;4942065;28;20023;-89
2022/09/12 05:38:53;;;;;;;10.70;5.22;;;16.30;99.90;;;;;;4974687;28;20038;-90
2022/09/12 05:41:21;;;;;;;7.30;5.00;;;16.30;99.90;;;;;;4957538;28;20022;-89
2022/09/12 05:43:51;;;;;;;9.40;4.95;;;16.20;99.90;;;;;;4974024;28;20102;-90
2022/09/12 05:46:19;;;;;;;9.50;6.00;;;16.30;99.90;;;;;;4954556;28;20027;-90
2022/09/12 05:48:47;;;;;;;9.18;5.32;;;16.30;99.90;;;;;;4956354;28;20050;-90
2022/09/12 05:51:19;;;;;;;6.60;4.47;;;16.30;99.90;;;;;;4970435;28;20086;-90
2022/09/12 05:53:52;;;;;;;9.43;5.15;;;16.30;99.90;;;;;;4957015;28;20054;-89
2022/09/12 05:56:22;;;;;;;8.70;5.93;;;16.30;99.90;;;;;;4972124;28;20039;-89
2022/09/12 05:59:11;;;;;;;9.68;5.60;;;16.30;99.90;;;;;;4957697;28;20022;-89
2022/09/12 06:01:38;;;;;;;7.22;5.45;;;16.30;99.90;;;;;;4963379;28;20038;-89
2022/09/12 06:04:05;;;;;;;10.02;5.22;;;16.30;99.90;;;;;;4957760;28;20103;-89
2022/09/12 06:06:42;;;;;;;10.13;4.97;;;16.30;99.90;;;;;;4975898;28;20030;-90
2022/09/12 06:09:11;;;;;;;8.18;5.30;;;16.30;99.90;;;;;;4963724;28;20035;-90
2022/09/12 06:11:41;;;;;;;8.05;5.60;;;16.30;99.90;;;;;;4956779;28;20101;-89
2022/09/12 06:14:13;;;;;;;7.28;5.82;;;16.40;99.90;;;;;;4956593;28;20014;-90
2022/09/12 06:16:39;;;;;;;4.95;3.25;;;16.30;99.90;;;;;;4954462;28;20125;-91
2022/09/12 06:19:17;;;;;;;7.47;4.30;;;16.30;99.90;;;;;;4956619;28;20556;-89
2022/09/12 06:21:44;;;;;;;7.47;5.38;;;16.30;99.90;;;;;;4955759;28;20502;-91
2022/09/12 06:24:09;;;;;;;6.68;4.88;;;16.30;99.90;;;;;;4957968;28;20082;-90
2022/09/12 06:26:35;;;;;;;9.45;5.68;;;16.40;99.90;;;;;;4956940;28;20122;-90
2022/09/12 06:29:01;;;;;;;9.10;6.13;;;16.40;99.90;;;;;;4956764;28;20035;-90
2022/09/12 06:31:33;;;;;;;8.50;5.72;;;16.30;99.90;;;;;;4974281;28;20023;-88
2022/09/12 06:34:02;;;;;;;8.00;5.80;;;16.30;99.90;;;;;;4973584;28;20043;-89
2022/09/12 06:36:32;;;;;;;8.63;5.70;;;16.30;99.90;;;;;;4956261;28;20101;-91
2022/09/12 06:39:06;;;;;;;10.32;6.20;;;16.30;99.90;;;;;;4957276;28;20027;-89
2022/09/12 06:41:33;;;;;;;8.65;5.75;;;16.30;99.90;;;;;;4957829;28;20019;-89
2022/09/12 06:44:00;;;;;;;7.15;4.78;;;16.30;99.90;;;;;;4957430;28;20062;-89
2022/09/12 06:46:26;;;;;;;7.97;6.50;;;16.30;99.90;;;;;;4957194;28;20031;-88
2022/09/12 06:48:55;;;;;;;13.82;7.63;;;16.30;99.90;;;;;;4957224;28;20467;-90
2022/09/12 06:51:20;;;;;;;10.40;6.75;;;16.30;99.90;;;;;;4959118;28;20031;-90
2022/09/12 06:53:47;;;;;;;7.75;4.88;;;16.30;99.90;;;;;;4960003;28;20432;-91
2022/09/12 06:56:20;;;;;;;11.07;6.95;;;16.30;99.90;;;;;;4958587;28;20054;-90
2022/09/12 06:58:47;;;;;;;11.35;7.60;;;16.30;99.90;;;;;;4962749;28;20042;-91
2022/09/12 07:01:17;;;;;;;5.78;4.55;;;16.30;99.90;;;;;;4959200;28;20050;-92
2022/09/12 07:03:47;;;;;;;10.23;6.10;;;16.30;99.90;;;;;;4964342;28;20062;-90
2022/09/12 07:06:15;;;;;;;14.80;6.53;;;16.30;99.90;;;;;;4962667;28;20054;-91
2022/09/12 07:08:44;;;;;;;5.85;4.68;;;16.30;99.90;;;;;;4964427;28;20023;-92
2022/09/12 07:11:22;;;;;;;8.90;5.32;;;16.30;99.90;;;;;;4963710;28;20090;-91
2022/09/12 07:13:50;;;;;;;12.13;5.07;;;16.40;99.90;;;;;;4969194;28;20029;-90
2022/09/12 07:16:17;;;;;;;9.10;6.32;;;16.40;99.90;;;;;;4972599;28;20102;-91
2022/09/12 07:18:42;;;;;;;7.88;5.15;;;16.40;99.90;;;;;;4971670;28;20078;-90
2022/09/12 07:21:13;;;;;;;12.93;5.93;;;16.40;99.90;;;;;;4972062;28;20038;-92
2022/09/12 07:23:40;;;;;;;9.13;6.57;;;16.40;99.90;;;;;;4971397;28;20027;-91
2022/09/12 07:26:07;;;;;;;7.28;5.40;;;16.40;99.90;;;;;;4966634;28;20039;-90
2022/09/12 07:28:34;;;;;;;8.95;5.72;;;16.50;99.90;;;;;;4964365;28;20019;-90
2022/09/12 07:31:08;;;;;;;12.52;5.40;;;16.50;99.90;;;;;;4961830;28;20120;-90
2022/09/12 07:33:34;;;;;;;7.80;4.85;;;16.50;99.90;;;;;;4975421;28;20030;-91
2022/09/12 07:36:05;;;;;;;6.28;4.07;;;16.50;99.90;;;;;;4961155;28;20027;-90
2022/09/12 07:38:32;;;;;;;7.43;4.97;;;16.50;99.90;;;;;;4961789;28;20086;-91
2022/09/12 07:40:57;;;;;;;14.57;6.60;;;16.60;99.90;;;;;;4961780;28;20037;-91
2022/09/12 07:43:24;;;;;;;7.18;5.13;;;16.60;99.90;;;;;;4960918;28;20055;-92
2022/09/12 07:45:55;;;;;;;12.93;7.60;;;16.60;99.90;;;;;;4962258;28;20046;-92
2022/09/12 07:48:21;;;;;;;8.27;5.43;;;16.60;99.90;;;;;;4971393;28;20062;-90
2022/09/12 07:50:46;;;;;;;6.85;4.68;;;16.60;99.90;;;;;;4981726;28;20019;-93
2022/09/12 07:53:12;;;;;;;8.63;4.75;;;16.60;99.90;;;;;;4975961;28;20397;-92
2022/09/12 07:55:38;;;;;;;7.80;4.75;;;16.60;99.90;;;;;;4960000;28;20476;-90
2022/09/12 07:58:04;;;;;;;8.55;5.18;;;16.60;99.90;;;;;;4961063;28;20027;-92
2022/09/12 08:00:34;;;;;;;9.40;6.30;;;16.60;99.90;;;;;;4961163;28;20026;-92
2022/09/12 08:03:06;;;;;;;7.18;3.78;;;16.60;99.90;;;;;;4977381;28;20047;-91
2022/09/12 08:05:31;;;;;;;;;;;16.70;99.90;;;;;;4959531;28;20031;-90
2022/09/12 08:07:57;;;;;;;10.50;4.97;;;16.70;99.90;;;;;;4962989;28;19933;-91
2022/09/12 08:10:23;;;;;;;6.70;4.43;;;16.70;99.90;;;;;;4960693;28;20504;-90
2022/09/12 08:12:49;;;;;;;9.40;4.55;;;16.80;99.90;;;;;;4960501;28;20035;-91
2022/09/12 08:15:15;;;;;;;10.48;4.95;;;16.80;99.90;;;;;;4961928;28;20050;-90
2022/09/12 08:17:41;;;;;;;10.35;4.65;;;16.80;99.90;;;;;;4960895;28;20400;-91
2022/09/12 08:20:08;;;;;;;9.27;4.28;;;16.90;99.90;;;;;;4960849;28;20384;-91
2022/09/12 08:22:33;;;;;;;11.25;4.43;;;16.90;99.90;;;;;;4961755;28;20034;-91
2022/09/12 08:24:59;;;;;;;8.38;4.82;;;16.90;99.90;;;;;;4964918;28;20473;-91
2022/09/12 08:27:25;;;;;;;12.27;5.10;;;17.00;99.90;;;;;;4965256;28;20027;-91
2022/09/12 08:29:51;;;;;;;12.70;4.75;;;17.00;99.90;;;;;;4959788;28;20552;-92
2022/09/12 08:32:17;;;;;;;9.20;4.82;;;17.00;99.90;;;;;;4959276;28;20030;-90
2022/09/12 08:34:43;;;;;;;7.65;3.88;;;17.10;99.90;;;;;;4959691;28;20019;-91
2022/09/12 08:37:08;;;;;;;7.70;3.60;;;17.10;99.90;;;;;;4959552;28;20022;-91
2022/09/12 08:39:37;;;;;;;9.70;4.45;;;17.10;99.90;;;;;;4959216;28;20030;-90
2022/09/12 08:42:06;;;;;;;7.78;4.65;;;17.20;99.90;;;;;;4959949;28;20018;-91
2022/09/12 08:45:05;;;;;;;5.47;3.63;;;17.20;99.90;;;;;;4941249;29;20035;-90
2022/09/12 08:47:38;;;;;;;7.43;4.03;;;17.30;99.90;;;;;;4961360;28;20031;-91
2022/09/12 08:50:10;;;;;;;4.82;3.17;;;17.30;99.90;;;;;;4962755;28;20090;-92
2022/09/12 08:53:02;;;;;;;5.90;3.97;;;17.40;99.90;;;;;;4963139;28;20027;-90
2022/09/12 08:56:04;;;;;;;5.78;3.63;;;17.50;99.90;;;;;;4978812;28;20551;-91
2022/09/12 08:58:38;;;;;;;6.00;3.03;;;17.50;99.90;;;;;;4904461;29;20028;-89
2022/09/12 09:01:22;;;;;;;8.23;3.78;;;17.60;99.90;;;;;;4911015;29;20047;-91
2022/09/12 09:04:11;;;;;;;9.50;3.15;;;17.60;99.90;;;;;;4917354;29;20455;-91
2022/09/12 09:07:11;;;;;;;6.97;3.47;;;17.70;99.90;;;;;;4905925;29;20131;-90
2022/09/12 09:09:53;;;;;;;7.82;3.97;;;17.80;99.90;;;;;;4916789;29;20074;-89
2022/09/12 09:12:50;;;;;;;11.63;4.95;;;17.80;99.90;;;;;;4889812;29;20043;-90
2022/09/12 09:15:47;;;;;;;5.55;3.38;;;17.90;99.90;;;;;;4895921;29;20032;-88
2022/09/12 09:18:24;;;;;;;10.73;3.50;;;17.90;99.90;;;;;;4915507;29;20048;-91
2022/09/12 09:20:56;;;;;;;6.40;3.30;;;18.00;99.90;;;;;;4900300;29;20032;-89
2022/09/12 09:23:45;;;;;;;7.45;3.58;;;18.00;99.90;;;;;;4898954;29;20032;-90
2022/09/12 09:26:31;;;;;;;8.98;3.50;;;18.00;99.90;;;;;;4900192;29;20043;-90
2022/09/12 09:29:13;;;;;;;8.23;3.28;;;18.10;99.90;;;;;;4900671;29;20067;-91
2022/09/12 09:31:39;;;;;;;6.30;3.10;;;18.20;99.90;;;;;;4910431;28;20034;-90
2022/09/12 09:34:14;;;;;;;8.32;3.10;;;18.20;99.90;;;;;;4954006;28;20039;-90
2022/09/12 09:36:51;;;;;;;4.55;2.22;;;18.30;99.90;;;;;;4971777;28;20015;-92
2022/09/12 09:39:27;;;;;;;5.13;2.20;;;18.40;99.90;;;;;;4966375;28;20103;-91
2022/09/12 09:42:15;;;;;;;6.82;2.05;;;18.40;99.90;;;;;;4957905;28;20078;-90
2022/09/12 09:44:42;;;;;;;4.65;1.75;;;18.50;99.90;;;;;;4955551;28;20031;-90
2022/09/12 09:47:10;;;;;;;3.63;2.30;;;18.50;99.90;;;;;;4957222;28;20034;-90
2022/09/12 09:49:36;;;;;;;5.22;2.30;;;18.60;99.90;;;;;;4940948;28;20035;-92
2022/09/12 09:52:06;;;;;;;4.03;2.05;;;18.60;99.90;;;;;;4957497;28;20515;-91
2022/09/12 09:54:37;;;;;;;;;;;18.70;99.90;;;;;;4958119;28;20027;-91
2022/09/12 09:57:25;;;;;;;2.20;1.60;;;18.70;99.90;;;;;;4955778;28;19945;-90
2022/09/12 09:59:50;;;;;;;4.22;1.60;;;18.70;99.90;;;;;;4956685;28;20161;-89
2022/09/12 10:02:22;;;;;;;5.20;1.65;;;18.80;99.90;;;;;;4956377;28;20077;-89
2022/09/12 10:04:58;;;;;;;7.15;2.22;;;18.80;99.90;;;;;;4957850;28;20105;-91
2022/09/12 10:07:25;;;;;;;2.80;1.50;;;18.90;99.90;;;;;;4975145;28;20094;-92
2022/09/12 10:10:16;;;;;;;3.40;1.48;;;18.90;99.90;;;;;;4960946;28;20487;-92
2022/09/12 10:12:42;;;;;;;2.63;1.30;;;18.80;99.90;;;;;;4965412;28;20027;-90
2022/09/12 10:15:25;;;;;;;5.53;1.50;;;18.80;99.90;;;;;;4966979;28;20205;-91
2022/09/12 10:17:55;;;;;;;1.40;1.10;;;18.80;99.90;;;;;;4964543;28;20042;-91
2022/09/12 10:20:33;;;;;;;1.80;1.07;;;18.80;99.90;;;;;;4961618;28;20118;-92
2022/09/12 10:23:21;;;;;;;5.13;1.00;;;18.80;99.90;;;;;;4976992;28;20026;-93
2022/09/12 10:25:58;;;;;;;4.68;0.95;;;18.80;99.90;;;;;;4963684;28;20058;-93
2022/09/12 10:28:40;;;;;;;1.85;1.20;;;18.80;99.90;;;;;;4958433;28;20030;-93
2022/09/12 10:31:08;;;;;;;4.47;0.95;;;18.80;99.90;;;;;;4959858;28;20101;-94
2022/09/12 10:33:51;;;;;;;2.85;1.20;;;18.80;99.90;;;;;;4962829;28;20061;-93
2022/09/12 10:36:18;;;;;;;1.88;1.15;;;18.90;99.90;;;;;;4962766;28;20029;-93
2022/09/12 10:38:54;;;;;;;1.13;1.00;;;18.80;99.90;;;;;;4963197;28;20033;-93
2022/09/12 10:41:23;;;;;;;2.22;1.20;;;18.80;99.90;;;;;;4959312;28;20389;-94
2022/09/12 10:43:49;;;;;;;1.45;1.00;;;18.80;99.90;;;;;;4962157;28;20627;-93
2022/09/12 10:46:18;;;;;;;1.88;1.10;;;18.90;99.90;;;;;;4961389;28;20620;-92
2022/09/12 10:48:45;;;;;;;3.22;1.33;;;18.80;99.90;;;;;;4962004;28;20058;-94
2022/09/12 10:51:23;;;;;;;3.10;1.27;;;18.80;99.90;;;;;;4960985;28;20050;-92
2022/09/12 10:53:50;;;;;;;2.22;1.35;;;18.70;99.90;;;;;;4976612;28;20043;-92
2022/09/12 10:56:23;;;;;;;2.75;1.17;;;18.70;99.90;;;;;;4962628;28;20015;-91
2022/09/12 10:59:19;;;;;;;2.17;1.20;;;18.70;99.90;;;;;;4961381;28;20343;-92
2022/09/12 11:01:46;;;;;;;4.82;1.50;;;18.70;99.90;;;;;;4959866;28;20025;-91
2022/09/12 11:04:31;;;;;;;2.20;1.15;;;18.70;99.90;;;;;;4961441;28;20033;-91
2022/09/12 11:07:11;;;;;;;2.10;1.27;;;18.80;99.90;;;;;;4958988;28;20035;-92
2022/09/12 11:09:43;;;;;;;2.35;1.90;;;18.90;99.90;;;;;;4964392;28;20026;-91
2022/09/12 11:12:49;;;;;;;4.05;1.60;;;18.90;99.90;;;;;;4962122;28;20042;-91
2022/09/12 11:15:37;;;;;;;2.72;1.30;;;19.00;99.90;;;;;;4980364;28;20042;-91
2022/09/12 11:18:22;;;;;;;1.70;1.10;;;19.00;99.90;;;;;;4979599;28;20039;-90
2022/09/12 11:20:56;;;;;;;2.53;1.48;;;19.00;99.90;;;;;;4972744;29;20015;-90
2022/09/12 11:23:40;;;;;;;1.10;1.00;;;19.00;99.90;;;;;;4963963;28;20027;-91
2022/09/12 11:26:30;;;;;;;2.90;2.03;;;19.00;99.90;;;;;;4965877;28;20039;-92
2022/09/12 11:29:24;;;;;;;1.30;1.10;;;19.10;99.90;;;;;;4969771;28;20031;-92
2022/09/12 11:31:53;;;;;;;2.17;1.10;;;19.20;99.90;;;;;;4968507;28;20034;-93
2022/09/12 11:34:41;;;;;;;3.08;1.10;;;19.30;99.90;;;;;;4974508;28;20031;-91
2022/09/12 11:37:30;;;;;;;1.20;0.95;;;19.40;99.90;;;;;;4967619;28;20027;-93
2022/09/12 11:40:12;;;;;;;2.22;1.20;;;19.40;99.90;;;;;;4931336;29;20131;-92
2022/09/12 11:42:40;;;;;;;1.20;0.80;;;19.50;99.90;;;;;;4915613;29;20060;-92
2022/09/12 11:45:40;;;;;;;1.20;0.93;;;19.50;99.90;;;;;;4926735;29;20043;-94
2022/09/12 11:48:14;;;;;;;1.98;1.00;;;19.50;99.90;;;;;;4942755;29;20701;-91
2022/09/12 11:50:40;;;;;;;0.82;0.82;;;19.50;99.90;;;;;;4930941;29;20079;-92
2022/09/12 11:53:19;;;;;;;3.30;1.05;;;19.50;99.90;;;;;;4938766;29;20118;-91
2022/09/12 11:56:01;;;;;;;1.35;1.00;;;19.50;99.90;;;;;;4916393;29;20023;-90
2022/09/12 11:58:30;;;;;;;1.80;0.80;;;19.60;99.90;;;;;;4923121;29;20079;-92
2022/09/12 12:01:13;;;;;;;2.78;0.90;;;19.60;99.90;;;;;;4920420;29;20024;-92
2022/09/12 12:03:45;;;;;;;1.33;0.90;;;19.60;99.90;;;;;;4937625;29;20540;-90
2022/09/12 12:06:35;;;;;;;1.13;0.65;;;19.60;99.90;;;;;;4921908;29;20073;-91
2022/09/12 12:09:09;;;;;;;1.10;0.82;;;19.60;99.90;;;;;;4921212;29;20047;-92
2022/09/12 12:11:46;;;;;;;2.30;1.23;;;19.60;99.90;;;;;;4909151;29;20127;-91
2022/09/12 12:14:31;;;;;;;1.67;0.85;;;19.60;99.90;;;;;;4918456;29;20039;-91
2022/09/12 12:16:57;;;;;;;4.03;0.80;;;19.60;99.90;;;;;;4941543;28;20042;-90
2022/09/12 12:19:35;;;;;;;1.52;0.77;;;19.70;99.90;;;;;;4966905;28;20047;-91
2022/09/12 12:22:05;;;;;;;1.20;0.52;;;19.60;99.90;;;;;;4966937;28;20023;-91
2022/09/12 12:24:58;;;;;;;1.25;0.70;;;19.60;99.90;;;;;;4975804;28;20026;-91
2022/09/12 12:27:45;;;;;;;2.47;0.82;;;19.60;99.90;;;;;;4968471;28;20429;-92
2022/09/12 12:30:52;;;;;;;2.13;1.00;;;19.60;99.90;;;;;;4954156;28;20082;-93
2022/09/12 12:33:21;;;;;;;3.20;0.95;;;19.50;99.90;;;;;;4958454;28;20034;-91
2022/09/12 12:36:06;;;;;;;0.73;0.70;;;19.50;99.90;;;;;;4982995;28;20022;-92
2022/09/12 12:38:39;;;;;;;2.05;0.75;;;19.50;99.90;;;;;;4967698;28;20023;-91
2022/09/12 12:41:20;;;;;;;0.68;0.68;;;19.50;99.90;;;;;;4962796;28;20098;-91
2022/09/12 12:43:52;;;;;;;1.17;0.80;;;19.40;99.90;;;;;;4968249;28;20095;-91
2022/09/12 12:46:21;;;;;;;0.60;0.60;;;19.40;99.90;;;;;;4961113;28;20031;-90
2022/09/12 12:48:50;;;;;;;3.15;0.93;;;19.40;99.90;;;;;;4953562;28;20030;-92
2022/09/12 12:51:36;;;;;;;2.47;0.52;;;19.40;99.90;;;;;;4974871;28;20026;-91
2022/09/12 12:54:05;;;;;;;3.15;0.80;;;19.40;99.90;;;;;;4968346;28;20023;-91
2022/09/12 12:56:37;;;;;;;0.70;0.70;;;19.40;99.90;;;;;;4974752;28;20055;-91
2022/09/12 12:59:16;;;;;;;3.00;0.80;;;19.40;99.90;;;;;;4970527;28;20032;-92
2022/09/12 13:01:54;;;;;;;1.13;0.60;;;19.40;99.90;;;;;;4967375;28;20019;-91
2022/09/12 13:04:23;;;;;;;1.55;0.63;;;19.30;99.90;;;;;;4980069;28;20038;-91
2022/09/12 13:07:07;;;;;;;1.40;0.60;;;19.30;99.90;;;;;;4970556;28;20061;-90
2022/09/12 13:09:51;;;;;;;1.13;0.70;;;19.30;99.90;;;;;;4962185;28;20023;-89
2022/09/12 13:12:24;;;;;;;0.82;0.80;;;19.30;99.90;;;;;;4975075;28;20034;-89
2022/09/12 13:14:55;;;;;;;2.80;0.80;;;19.30;99.90;;;;;;4960475;28;20031;-88
2022/09/12 13:17:42;;;;;;;2.60;0.95;;;19.30;99.90;;;;;;4958481;28;20076;-90
2022/09/12 13:20:30;;;;;;;4.68;0.80;;;19.30;99.90;;;;;;4959315;28;20031;-89
2022/09/12 13:22:57;;;;;;;1.60;0.82;;;19.30;99.90;;;;;;4956617;28;20117;-90
2022/09/12 13:25:28;;;;;;;4.30;0.98;;;19.30;99.90;;;;;;4958585;28;20043;-90
2022/09/12 13:28:06;;;;;;;2.60;0.80;;;19.30;99.90;;;;;;4960421;28;20027;-90
2022/09/12 13:30:58;;;;;;;1.88;0.90;;;19.30;99.90;;;;;;4961919;28;20049;-89